sensor_id;sensor_type;location;lat;lon;timestamp;P1;durP1;ratioP1;P2;durP2;ratioP2
51828;SDS011;37881;48.024;8.774;2023-07-31T00:01:35;6.28;;;3.00;;
51828;SDS011;37881;48.024;8.774;2023-07-31T00:04:02;5.80;;;2.63;;
51828;SDS011;37881;48.024;8.774;2023-07-31T00:06:29;12.07;;;8.67;;
51828;SDS011;37881;48.024;8.774;2023-07-31T00:08:56;10.60;;;4.68;;
51828;SDS011;37881;48.024;8.774;2023-07-31T00:11:23;10.10;;;4.90;;
51828;SDS011;37881;48.024;8.774;2023-07-31T00:13:49;7.70;;;4.00;;
51828;SDS011;37881;48.024;8.774;2023-07-31T00:16:16;7.10;;;3.00;;
51828;SDS011;37881;48.024;8.774;2023-07-31T00:18:43;4.93;;;2.93;;
51828;SDS011;37881;48.024;8.774;2023-07-31T00:21:10;4.93;;;3.13;;
51828;SDS011;37881;48.024;8.774;2023-07-31T00:23:36;8.45;;;4.57;;
51828;SDS011;37881;48.024;8.774;2023-07-31T00:26:03;19.40;;;10.90;;
51828;SDS011;37881;48.024;8.774;2023-07-31T00:28:30;8.98;;;4.90;;
51828;SDS011;37881;48.024;8.774;2023-07-31T00:30:56;4.80;;;2.53;;
51828;SDS011;37881;48.024;8.774;2023-07-31T00:33:23;4.75;;;2.72;;
51828;SDS011;37881;48.024;8.774;2023-07-31T00:35:50;4.82;;;2.90;;
51828;SDS011;37881;48.024;8.774;2023-07-31T00:38:17;5.78;;;2.80;;
51828;SDS011;37881;48.024;8.774;2023-07-31T00:40:43;5.28;;;2.80;;
51828;SDS011;37881;48.024;8.774;2023-07-31T00:43:10;9.93;;;4.67;;
51828;SDS011;37881;48.024;8.774;2023-07-31T00:45:37;10.80;;;5.22;;
51828;SDS011;37881;48.024;8.774;2023-07-31T00:48:04;9.68;;;5.20;;
51828;SDS011;37881;48.024;8.774;2023-07-31T00:50:33;10.10;;;5.72;;
51828;SDS011;37881;48.024;8.774;2023-07-31T00:52:59;8.77;;;4.60;;
51828;SDS011;37881;48.024;8.774;2023-07-31T00:55:26;5.87;;;3.73;;
51828;SDS011;37881;48.024;8.774;2023-07-31T00:57:53;10.90;;;6.05;;
51828;SDS011;37881;48.024;8.774;2023-07-31T01:00:22;8.23;;;4.82;;
51828;SDS011;37881;48.024;8.774;2023-07-31T01:02:49;6.25;;;3.55;;
51828;SDS011;37881;48.024;8.774;2023-07-31T01:05:23;5.78;;;3.40;;
51828;SDS011;37881;48.024;8.774;2023-07-31T01:07:58;5.30;;;3.03;;
51828;SDS011;37881;48.024;8.774;2023-07-31T01:10:46;4.40;;;2.80;;
51828;SDS011;37881;48.024;8.774;2023-07-31T01:13:21;5.65;;;2.92;;
51828;SDS011;37881;48.024;8.774;2023-07-31T01:15:48;4.50;;;2.85;;
51828;SDS011;37881;48.024;8.774;2023-07-31T01:18:15;6.25;;;2.70;;
51828;SDS011;37881;48.024;8.774;2023-07-31T01:20:42;4.23;;;2.50;;
51828;SDS011;37881;48.024;8.774;2023-07-31T01:23:30;7.00;;;2.92;;
51828;SDS011;37881;48.024;8.774;2023-07-31T01:26:18;6.18;;;2.92;;
51828;SDS011;37881;48.024;8.774;2023-07-31T01:29:00;4.60;;;2.40;;
51828;SDS011;37881;48.024;8.774;2023-07-31T01:31:30;5.32;;;3.20;;
51828;SDS011;37881;48.024;8.774;2023-07-31T01:33:59;6.13;;;2.67;;
51828;SDS011;37881;48.024;8.774;2023-07-31T01:36:27;4.95;;;2.70;;
51828;SDS011;37881;48.024;8.774;2023-07-31T01:38:59;4.70;;;2.80;;
51828;SDS011;37881;48.024;8.774;2023-07-31T01:41:26;5.47;;;2.85;;
51828;SDS011;37881;48.024;8.774;2023-07-31T01:43:53;5.53;;;2.97;;
51828;SDS011;37881;48.024;8.774;2023-07-31T01:46:20;4.87;;;2.57;;
51828;SDS011;37881;48.024;8.774;2023-07-31T01:48:47;5.38;;;2.70;;
51828;SDS011;37881;48.024;8.774;2023-07-31T01:51:14;5.22;;;2.88;;
51828;SDS011;37881;48.024;8.774;2023-07-31T01:53:40;6.57;;;3.00;;
51828;SDS011;37881;48.024;8.774;2023-07-31T01:56:07;7.60;;;3.17;;
51828;SDS011;37881;48.024;8.774;2023-07-31T01:58:34;5.80;;;3.00;;
51828;SDS011;37881;48.024;8.774;2023-07-31T02:01:00;6.20;;;2.80;;
51828;SDS011;37881;48.024;8.774;2023-07-31T02:03:27;4.47;;;2.78;;
51828;SDS011;37881;48.024;8.774;2023-07-31T02:05:54;5.78;;;2.70;;
51828;SDS011;37881;48.024;8.774;2023-07-31T02:08:21;6.13;;;3.00;;
51828;SDS011;37881;48.024;8.774;2023-07-31T02:10:48;5.50;;;3.27;;
51828;SDS011;37881;48.024;8.774;2023-07-31T02:13:14;5.07;;;2.85;;
51828;SDS011;37881;48.024;8.774;2023-07-31T02:15:41;6.63;;;2.80;;
51828;SDS011;37881;48.024;8.774;2023-07-31T02:18:08;6.30;;;2.70;;
51828;SDS011;37881;48.024;8.774;2023-07-31T02:20:34;5.07;;;3.00;;
51828;SDS011;37881;48.024;8.774;2023-07-31T02:23:02;5.17;;;2.73;;
51828;SDS011;37881;48.024;8.774;2023-07-31T02:25:28;5.05;;;2.80;;
51828;SDS011;37881;48.024;8.774;2023-07-31T02:27:55;4.88;;;2.78;;
51828;SDS011;37881;48.024;8.774;2023-07-31T02:30:22;5.32;;;2.83;;
51828;SDS011;37881;48.024;8.774;2023-07-31T02:32:49;5.85;;;2.90;;
51828;SDS011;37881;48.024;8.774;2023-07-31T02:35:16;6.40;;;2.93;;
51828;SDS011;37881;48.024;8.774;2023-07-31T02:37:42;7.03;;;3.10;;
51828;SDS011;37881;48.024;8.774;2023-07-31T02:40:09;5.07;;;2.88;;
51828;SDS011;37881;48.024;8.774;2023-07-31T02:42:36;6.50;;;2.72;;
51828;SDS011;37881;48.024;8.774;2023-07-31T02:45:03;4.32;;;2.90;;
51828;SDS011;37881;48.024;8.774;2023-07-31T02:47:30;6.60;;;2.80;;
51828;SDS011;37881;48.024;8.774;2023-07-31T02:49:57;7.05;;;2.88;;
51828;SDS011;37881;48.024;8.774;2023-07-31T02:52:24;5.55;;;3.00;;
51828;SDS011;37881;48.024;8.774;2023-07-31T02:54:50;5.90;;;2.92;;
51828;SDS011;37881;48.024;8.774;2023-07-31T02:57:17;7.85;;;4.88;;
51828;SDS011;37881;48.024;8.774;2023-07-31T02:59:44;20.27;;;11.23;;
51828;SDS011;37881;48.024;8.774;2023-07-31T03:02:10;9.20;;;4.70;;
51828;SDS011;37881;48.024;8.774;2023-07-31T03:04:38;5.88;;;3.20;;
51828;SDS011;37881;48.024;8.774;2023-07-31T03:07:05;5.88;;;3.10;;
51828;SDS011;37881;48.024;8.774;2023-07-31T03:09:32;6.53;;;3.00;;
51828;SDS011;37881;48.024;8.774;2023-07-31T03:11:59;6.93;;;3.30;;
51828;SDS011;37881;48.024;8.774;2023-07-31T03:14:26;8.98;;;3.30;;
51828;SDS011;37881;48.024;8.774;2023-07-31T03:16:53;5.90;;;3.08;;
51828;SDS011;37881;48.024;8.774;2023-07-31T03:19:20;5.97;;;3.20;;
51828;SDS011;37881;48.024;8.774;2023-07-31T03:21:47;6.90;;;3.28;;
51828;SDS011;37881;48.024;8.774;2023-07-31T03:24:13;5.37;;;3.03;;
51828;SDS011;37881;48.024;8.774;2023-07-31T03:26:40;6.50;;;2.95;;
51828;SDS011;37881;48.024;8.774;2023-07-31T03:29:08;5.38;;;3.20;;
51828;SDS011;37881;48.024;8.774;2023-07-31T03:31:35;5.43;;;3.22;;
51828;SDS011;37881;48.024;8.774;2023-07-31T03:34:01;7.65;;;3.58;;
51828;SDS011;37881;48.024;8.774;2023-07-31T03:36:28;5.77;;;3.27;;
51828;SDS011;37881;48.024;8.774;2023-07-31T03:38:55;7.47;;;3.50;;
51828;SDS011;37881;48.024;8.774;2023-07-31T03:41:22;6.65;;;3.28;;
51828;SDS011;37881;48.024;8.774;2023-07-31T03:43:49;6.72;;;3.22;;
51828;SDS011;37881;48.024;8.774;2023-07-31T03:46:18;6.18;;;3.38;;
51828;SDS011;37881;48.024;8.774;2023-07-31T03:48:45;6.17;;;3.70;;
51828;SDS011;37881;48.024;8.774;2023-07-31T03:51:11;6.68;;;3.38;;
51828;SDS011;37881;48.024;8.774;2023-07-31T03:53:38;6.47;;;3.35;;
51828;SDS011;37881;48.024;8.774;2023-07-31T03:56:05;5.70;;;3.65;;
51828;SDS011;37881;48.024;8.774;2023-07-31T03:58:32;6.40;;;3.70;;
51828;SDS011;37881;48.024;8.774;2023-07-31T04:00:59;6.53;;;3.73;;
51828;SDS011;37881;48.024;8.774;2023-07-31T04:03:25;6.25;;;3.30;;
51828;SDS011;37881;48.024;8.774;2023-07-31T04:05:53;7.05;;;3.58;;
51828;SDS011;37881;48.024;8.774;2023-07-31T04:08:22;7.65;;;3.55;;
51828;SDS011;37881;48.024;8.774;2023-07-31T04:10:49;5.97;;;3.40;;
51828;SDS011;37881;48.024;8.774;2023-07-31T04:13:16;5.90;;;3.20;;
51828;SDS011;37881;48.024;8.774;2023-07-31T04:15:47;6.40;;;3.20;;
51828;SDS011;37881;48.024;8.774;2023-07-31T04:18:17;6.05;;;3.63;;
51828;SDS011;37881;48.024;8.774;2023-07-31T04:20:44;6.53;;;3.70;;
51828;SDS011;37881;48.024;8.774;2023-07-31T04:23:11;6.43;;;3.70;;
51828;SDS011;37881;48.024;8.774;2023-07-31T04:25:37;8.43;;;3.67;;
51828;SDS011;37881;48.024;8.774;2023-07-31T04:28:04;6.03;;;3.50;;
51828;SDS011;37881;48.024;8.774;2023-07-31T04:30:31;8.95;;;3.83;;
51828;SDS011;37881;48.024;8.774;2023-07-31T04:32:58;6.03;;;3.60;;
51828;SDS011;37881;48.024;8.774;2023-07-31T04:35:26;8.27;;;3.50;;
51828;SDS011;37881;48.024;8.774;2023-07-31T04:37:54;6.53;;;3.30;;
51828;SDS011;37881;48.024;8.774;2023-07-31T04:40:20;6.18;;;3.38;;
51828;SDS011;37881;48.024;8.774;2023-07-31T04:42:48;7.50;;;3.50;;
51828;SDS011;37881;48.024;8.774;2023-07-31T04:45:14;6.25;;;3.33;;
51828;SDS011;37881;48.024;8.774;2023-07-31T04:47:41;5.22;;;3.33;;
51828;SDS011;37881;48.024;8.774;2023-07-31T04:50:08;5.80;;;3.30;;
51828;SDS011;37881;48.024;8.774;2023-07-31T04:52:35;6.13;;;3.50;;
51828;SDS011;37881;48.024;8.774;2023-07-31T04:55:02;8.00;;;3.55;;
51828;SDS011;37881;48.024;8.774;2023-07-31T04:57:29;5.28;;;3.25;;
51828;SDS011;37881;48.024;8.774;2023-07-31T04:59:56;7.10;;;3.50;;
51828;SDS011;37881;48.024;8.774;2023-07-31T05:02:22;4.83;;;3.20;;
51828;SDS011;37881;48.024;8.774;2023-07-31T05:04:49;7.05;;;3.33;;
51828;SDS011;37881;48.024;8.774;2023-07-31T05:07:16;6.43;;;3.45;;
51828;SDS011;37881;48.024;8.774;2023-07-31T05:09:43;5.20;;;3.20;;
51828;SDS011;37881;48.024;8.774;2023-07-31T05:12:10;8.10;;;3.80;;
51828;SDS011;37881;48.024;8.774;2023-07-31T05:14:37;6.80;;;3.60;;
51828;SDS011;37881;48.024;8.774;2023-07-31T05:17:03;6.85;;;3.40;;
51828;SDS011;37881;48.024;8.774;2023-07-31T05:19:30;6.40;;;3.30;;
51828;SDS011;37881;48.024;8.774;2023-07-31T05:21:57;6.90;;;3.70;;
51828;SDS011;37881;48.024;8.774;2023-07-31T05:24:24;5.15;;;3.20;;
51828;SDS011;37881;48.024;8.774;2023-07-31T05:26:50;8.57;;;3.40;;
51828;SDS011;37881;48.024;8.774;2023-07-31T05:29:17;8.80;;;3.63;;
51828;SDS011;37881;48.024;8.774;2023-07-31T05:31:44;6.70;;;3.33;;
51828;SDS011;37881;48.024;8.774;2023-07-31T05:34:11;6.13;;;3.50;;
51828;SDS011;37881;48.024;8.774;2023-07-31T05:36:37;5.65;;;3.30;;
51828;SDS011;37881;48.024;8.774;2023-07-31T05:39:05;6.40;;;3.47;;
51828;SDS011;37881;48.024;8.774;2023-07-31T05:41:35;6.45;;;3.45;;
51828;SDS011;37881;48.024;8.774;2023-07-31T05:44:02;5.72;;;3.65;;
51828;SDS011;37881;48.024;8.774;2023-07-31T05:46:29;7.22;;;3.60;;
51828;SDS011;37881;48.024;8.774;2023-07-31T05:48:58;7.47;;;3.60;;
51828;SDS011;37881;48.024;8.774;2023-07-31T05:51:27;6.57;;;3.40;;
51828;SDS011;37881;48.024;8.774;2023-07-31T05:53:54;5.85;;;3.20;;
51828;SDS011;37881;48.024;8.774;2023-07-31T05:56:21;6.43;;;3.50;;
51828;SDS011;37881;48.024;8.774;2023-07-31T05:58:48;8.30;;;3.53;;
51828;SDS011;37881;48.024;8.774;2023-07-31T06:01:16;7.53;;;3.67;;
51828;SDS011;37881;48.024;8.774;2023-07-31T06:03:43;9.30;;;3.37;;
51828;SDS011;37881;48.024;8.774;2023-07-31T06:06:11;8.13;;;3.00;;
51828;SDS011;37881;48.024;8.774;2023-07-31T06:08:37;6.05;;;2.90;;
51828;SDS011;37881;48.024;8.774;2023-07-31T06:11:04;4.85;;;3.00;;
51828;SDS011;37881;48.024;8.774;2023-07-31T06:13:32;7.10;;;2.90;;
51828;SDS011;37881;48.024;8.774;2023-07-31T06:15:58;6.40;;;2.80;;
51828;SDS011;37881;48.024;8.774;2023-07-31T06:18:26;5.97;;;3.22;;
51828;SDS011;37881;48.024;8.774;2023-07-31T06:20:52;6.20;;;2.80;;
51828;SDS011;37881;48.024;8.774;2023-07-31T06:23:20;5.72;;;2.60;;
51828;SDS011;37881;48.024;8.774;2023-07-31T06:25:47;5.93;;;2.50;;
51828;SDS011;37881;48.024;8.774;2023-07-31T06:28:14;7.77;;;2.67;;
51828;SDS011;37881;48.024;8.774;2023-07-31T06:30:40;6.00;;;3.00;;
51828;SDS011;37881;48.024;8.774;2023-07-31T06:33:07;5.63;;;2.85;;
51828;SDS011;37881;48.024;8.774;2023-07-31T06:35:35;4.07;;;2.53;;
51828;SDS011;37881;48.024;8.774;2023-07-31T06:38:02;7.85;;;3.00;;
51828;SDS011;37881;48.024;8.774;2023-07-31T06:40:29;6.17;;;2.67;;
51828;SDS011;37881;48.024;8.774;2023-07-31T06:42:56;6.55;;;2.53;;
51828;SDS011;37881;48.024;8.774;2023-07-31T06:45:23;5.22;;;2.75;;
51828;SDS011;37881;48.024;8.774;2023-07-31T06:47:50;5.68;;;3.03;;
51828;SDS011;37881;48.024;8.774;2023-07-31T06:50:17;5.95;;;2.90;;
51828;SDS011;37881;48.024;8.774;2023-07-31T06:52:44;6.67;;;3.10;;
51828;SDS011;37881;48.024;8.774;2023-07-31T06:55:18;5.35;;;3.00;;
51828;SDS011;37881;48.024;8.774;2023-07-31T06:57:46;6.65;;;3.03;;
51828;SDS011;37881;48.024;8.774;2023-07-31T07:00:13;6.35;;;2.42;;
51828;SDS011;37881;48.024;8.774;2023-07-31T07:02:41;5.90;;;2.70;;
51828;SDS011;37881;48.024;8.774;2023-07-31T07:05:08;5.77;;;2.40;;
51828;SDS011;37881;48.024;8.774;2023-07-31T07:07:35;5.03;;;2.60;;
51828;SDS011;37881;48.024;8.774;2023-07-31T07:10:02;5.65;;;2.45;;
51828;SDS011;37881;48.024;8.774;2023-07-31T07:12:30;5.50;;;3.00;;
51828;SDS011;37881;48.024;8.774;2023-07-31T07:14:57;7.05;;;3.05;;
51828;SDS011;37881;48.024;8.774;2023-07-31T07:17:25;6.47;;;2.77;;
51828;SDS011;37881;48.024;8.774;2023-07-31T07:19:53;6.50;;;2.42;;
51828;SDS011;37881;48.024;8.774;2023-07-31T07:22:19;6.40;;;2.58;;
51828;SDS011;37881;48.024;8.774;2023-07-31T07:24:46;5.05;;;2.50;;
51828;SDS011;37881;48.024;8.774;2023-07-31T07:27:13;3.97;;;2.58;;
51828;SDS011;37881;48.024;8.774;2023-07-31T07:29:40;5.83;;;2.60;;
51828;SDS011;37881;48.024;8.774;2023-07-31T07:32:06;4.82;;;2.80;;
51828;SDS011;37881;48.024;8.774;2023-07-31T07:34:34;5.28;;;2.35;;
51828;SDS011;37881;48.024;8.774;2023-07-31T07:37:00;4.85;;;2.30;;
51828;SDS011;37881;48.024;8.774;2023-07-31T07:39:27;4.82;;;2.22;;
51828;SDS011;37881;48.024;8.774;2023-07-31T07:41:54;5.03;;;2.10;;
51828;SDS011;37881;48.024;8.774;2023-07-31T07:44:21;4.65;;;2.40;;
51828;SDS011;37881;48.024;8.774;2023-07-31T07:46:48;6.30;;;2.22;;
51828;SDS011;37881;48.024;8.774;2023-07-31T07:49:14;5.28;;;2.30;;
51828;SDS011;37881;48.024;8.774;2023-07-31T07:51:41;4.97;;;2.30;;
51828;SDS011;37881;48.024;8.774;2023-07-31T07:54:08;4.40;;;2.30;;
51828;SDS011;37881;48.024;8.774;2023-07-31T07:56:35;5.43;;;2.20;;
51828;SDS011;37881;48.024;8.774;2023-07-31T07:59:03;5.50;;;2.30;;
51828;SDS011;37881;48.024;8.774;2023-07-31T08:01:30;5.65;;;2.35;;
51828;SDS011;37881;48.024;8.774;2023-07-31T08:03:57;4.55;;;2.15;;
51828;SDS011;37881;48.024;8.774;2023-07-31T08:06:24;4.80;;;2.20;;
51828;SDS011;37881;48.024;8.774;2023-07-31T08:08:51;6.00;;;2.13;;
51828;SDS011;37881;48.024;8.774;2023-07-31T08:11:18;4.82;;;2.40;;
51828;SDS011;37881;48.024;8.774;2023-07-31T08:13:44;5.97;;;2.65;;
51828;SDS011;37881;48.024;8.774;2023-07-31T08:16:11;4.50;;;2.50;;
51828;SDS011;37881;48.024;8.774;2023-07-31T08:18:38;5.03;;;2.10;;
51828;SDS011;37881;48.024;8.774;2023-07-31T08:21:07;5.07;;;2.10;;
51828;SDS011;37881;48.024;8.774;2023-07-31T08:23:33;4.53;;;2.08;;
51828;SDS011;37881;48.024;8.774;2023-07-31T08:26:00;4.78;;;2.20;;
51828;SDS011;37881;48.024;8.774;2023-07-31T08:28:27;5.43;;;2.20;;
51828;SDS011;37881;48.024;8.774;2023-07-31T08:30:53;4.67;;;1.93;;
51828;SDS011;37881;48.024;8.774;2023-07-31T08:33:20;4.40;;;2.08;;
51828;SDS011;37881;48.024;8.774;2023-07-31T08:35:47;5.47;;;1.77;;
51828;SDS011;37881;48.024;8.774;2023-07-31T08:38:14;4.20;;;1.65;;
51828;SDS011;37881;48.024;8.774;2023-07-31T08:40:41;4.35;;;1.75;;
51828;SDS011;37881;48.024;8.774;2023-07-31T08:43:08;7.57;;;3.53;;
51828;SDS011;37881;48.024;8.774;2023-07-31T08:45:35;3.90;;;1.70;;
51828;SDS011;37881;48.024;8.774;2023-07-31T08:48:02;4.85;;;1.80;;
51828;SDS011;37881;48.024;8.774;2023-07-31T08:50:30;4.15;;;2.08;;
51828;SDS011;37881;48.024;8.774;2023-07-31T08:52:57;4.35;;;1.80;;
51828;SDS011;37881;48.024;8.774;2023-07-31T08:55:24;3.93;;;1.70;;
51828;SDS011;37881;48.024;8.774;2023-07-31T08:57:51;4.80;;;2.00;;
51828;SDS011;37881;48.024;8.774;2023-07-31T09:00:19;3.63;;;1.83;;
51828;SDS011;37881;48.024;8.774;2023-07-31T09:03:02;4.90;;;1.83;;
51828;SDS011;37881;48.024;8.774;2023-07-31T09:05:30;5.90;;;2.10;;
51828;SDS011;37881;48.024;8.774;2023-07-31T09:07:57;4.93;;;1.80;;
51828;SDS011;37881;48.024;8.774;2023-07-31T09:10:25;4.65;;;1.67;;
51828;SDS011;37881;48.024;8.774;2023-07-31T09:12:52;4.88;;;1.80;;
51828;SDS011;37881;48.024;8.774;2023-07-31T09:15:19;4.10;;;1.70;;
51828;SDS011;37881;48.024;8.774;2023-07-31T09:18:03;4.22;;;1.50;;
51828;SDS011;37881;48.024;8.774;2023-07-31T09:20:31;3.77;;;1.80;;
51828;SDS011;37881;48.024;8.774;2023-07-31T09:23:12;4.00;;;1.65;;
51828;SDS011;37881;48.024;8.774;2023-07-31T09:25:43;5.07;;;1.80;;
51828;SDS011;37881;48.024;8.774;2023-07-31T09:28:11;4.07;;;1.80;;
51828;SDS011;37881;48.024;8.774;2023-07-31T09:30:46;4.25;;;1.88;;
51828;SDS011;37881;48.024;8.774;2023-07-31T09:33:14;3.87;;;1.70;;
51828;SDS011;37881;48.024;8.774;2023-07-31T09:35:42;3.38;;;1.70;;
51828;SDS011;37881;48.024;8.774;2023-07-31T09:38:09;4.18;;;1.77;;
51828;SDS011;37881;48.024;8.774;2023-07-31T09:40:40;4.05;;;1.83;;
51828;SDS011;37881;48.024;8.774;2023-07-31T09:43:10;4.55;;;1.80;;
51828;SDS011;37881;48.024;8.774;2023-07-31T09:45:38;4.57;;;2.07;;
51828;SDS011;37881;48.024;8.774;2023-07-31T09:48:12;4.35;;;1.70;;
51828;SDS011;37881;48.024;8.774;2023-07-31T09:50:44;3.80;;;1.80;;
51828;SDS011;37881;48.024;8.774;2023-07-31T09:53:12;4.57;;;2.08;;
51828;SDS011;37881;48.024;8.774;2023-07-31T09:55:39;4.57;;;2.00;;
51828;SDS011;37881;48.024;8.774;2023-07-31T09:58:08;5.17;;;2.00;;
51828;SDS011;37881;48.024;8.774;2023-07-31T10:00:36;5.32;;;2.00;;
51828;SDS011;37881;48.024;8.774;2023-07-31T10:03:07;6.70;;;2.10;;
51828;SDS011;37881;48.024;8.774;2023-07-31T10:08:02;4.78;;;2.00;;
51828;SDS011;37881;48.024;8.774;2023-07-31T10:10:30;5.63;;;2.10;;
51828;SDS011;37881;48.024;8.774;2023-07-31T10:12:57;4.57;;;2.00;;
51828;SDS011;37881;48.024;8.774;2023-07-31T10:15:26;4.85;;;1.80;;
51828;SDS011;37881;48.024;8.774;2023-07-31T10:17:53;4.13;;;1.92;;
51828;SDS011;37881;48.024;8.774;2023-07-31T10:20:21;4.75;;;2.10;;
51828;SDS011;37881;48.024;8.774;2023-07-31T10:22:48;4.70;;;2.27;;
51828;SDS011;37881;48.024;8.774;2023-07-31T10:25:15;5.63;;;2.30;;
51828;SDS011;37881;48.024;8.774;2023-07-31T10:27:43;4.18;;;2.00;;
51828;SDS011;37881;48.024;8.774;2023-07-31T10:30:12;4.43;;;2.10;;
51828;SDS011;37881;48.024;8.774;2023-07-31T10:32:45;5.30;;;1.98;;
51828;SDS011;37881;48.024;8.774;2023-07-31T10:35:14;4.73;;;1.90;;
51828;SDS011;37881;48.024;8.774;2023-07-31T10:37:43;4.22;;;1.90;;
51828;SDS011;37881;48.024;8.774;2023-07-31T10:42:51;5.43;;;1.83;;
51828;SDS011;37881;48.024;8.774;2023-07-31T10:47:58;4.93;;;1.90;;
51828;SDS011;37881;48.024;8.774;2023-07-31T10:50:29;3.22;;;2.00;;
51828;SDS011;37881;48.024;8.774;2023-07-31T10:52:59;5.25;;;2.00;;
51828;SDS011;37881;48.024;8.774;2023-07-31T10:55:28;3.95;;;2.00;;
51828;SDS011;37881;48.024;8.774;2023-07-31T10:58:08;4.78;;;2.20;;
51828;SDS011;37881;48.024;8.774;2023-07-31T11:00:38;3.80;;;1.97;;
51828;SDS011;37881;48.024;8.774;2023-07-31T11:03:18;4.57;;;1.90;;
51828;SDS011;37881;48.024;8.774;2023-07-31T11:08:25;5.07;;;2.25;;
51828;SDS011;37881;48.024;8.774;2023-07-31T11:13:29;4.87;;;2.10;;
51828;SDS011;37881;48.024;8.774;2023-07-31T11:16:06;6.65;;;2.70;;
51828;SDS011;37881;48.024;8.774;2023-07-31T11:18:33;5.85;;;2.20;;
51828;SDS011;37881;48.024;8.774;2023-07-31T11:20:59;8.00;;;2.60;;
51828;SDS011;37881;48.024;8.774;2023-07-31T11:23:26;4.88;;;2.30;;
51828;SDS011;37881;48.024;8.774;2023-07-31T11:25:53;4.77;;;2.30;;
51828;SDS011;37881;48.024;8.774;2023-07-31T11:28:26;4.68;;;2.53;;
51828;SDS011;37881;48.024;8.774;2023-07-31T11:30:54;5.10;;;2.50;;
51828;SDS011;37881;48.024;8.774;2023-07-31T11:33:22;4.63;;;2.30;;
51828;SDS011;37881;48.024;8.774;2023-07-31T11:35:49;4.18;;;2.30;;
51828;SDS011;37881;48.024;8.774;2023-07-31T11:38:25;4.40;;;2.20;;
51828;SDS011;37881;48.024;8.774;2023-07-31T11:40:56;5.80;;;2.40;;
51828;SDS011;37881;48.024;8.774;2023-07-31T11:43:25;6.20;;;2.50;;
51828;SDS011;37881;48.024;8.774;2023-07-31T11:45:55;4.80;;;2.60;;
51828;SDS011;37881;48.024;8.774;2023-07-31T11:48:24;5.03;;;2.22;;
51828;SDS011;37881;48.024;8.774;2023-07-31T11:51:00;5.60;;;2.30;;
51828;SDS011;37881;48.024;8.774;2023-07-31T11:53:31;5.30;;;2.38;;
51828;SDS011;37881;48.024;8.774;2023-07-31T11:56:03;5.75;;;2.60;;
51828;SDS011;37881;48.024;8.774;2023-07-31T11:58:31;5.68;;;2.30;;
51828;SDS011;37881;48.024;8.774;2023-07-31T12:01:00;4.95;;;2.53;;
51828;SDS011;37881;48.024;8.774;2023-07-31T12:03:27;5.33;;;2.50;;
51828;SDS011;37881;48.024;8.774;2023-07-31T12:05:54;5.55;;;2.25;;
51828;SDS011;37881;48.024;8.774;2023-07-31T12:08:22;5.75;;;2.10;;
51828;SDS011;37881;48.024;8.774;2023-07-31T12:10:50;4.43;;;2.08;;
51828;SDS011;37881;48.024;8.774;2023-07-31T12:13:25;4.55;;;2.40;;
51828;SDS011;37881;48.024;8.774;2023-07-31T12:15:56;5.37;;;2.30;;
51828;SDS011;37881;48.024;8.774;2023-07-31T12:18:25;5.18;;;2.30;;
51828;SDS011;37881;48.024;8.774;2023-07-31T12:20:56;5.35;;;2.40;;
51828;SDS011;37881;48.024;8.774;2023-07-31T12:23:27;4.78;;;2.50;;
51828;SDS011;37881;48.024;8.774;2023-07-31T12:26:08;4.63;;;2.40;;
51828;SDS011;37881;48.024;8.774;2023-07-31T12:28:46;4.50;;;2.27;;
51828;SDS011;37881;48.024;8.774;2023-07-31T12:31:15;3.95;;;2.35;;
51828;SDS011;37881;48.024;8.774;2023-07-31T12:33:46;5.07;;;2.95;;
51828;SDS011;37881;48.024;8.774;2023-07-31T12:36:16;5.85;;;2.67;;
51828;SDS011;37881;48.024;8.774;2023-07-31T12:38:44;5.18;;;2.53;;
51828;SDS011;37881;48.024;8.774;2023-07-31T12:41:12;5.13;;;2.60;;
51828;SDS011;37881;48.024;8.774;2023-07-31T12:43:40;4.90;;;2.53;;
51828;SDS011;37881;48.024;8.774;2023-07-31T12:46:08;4.78;;;2.60;;
51828;SDS011;37881;48.024;8.774;2023-07-31T12:48:35;4.43;;;2.50;;
51828;SDS011;37881;48.024;8.774;2023-07-31T12:51:03;4.43;;;2.50;;
51828;SDS011;37881;48.024;8.774;2023-07-31T12:53:30;4.83;;;2.20;;
51828;SDS011;37881;48.024;8.774;2023-07-31T12:55:56;5.35;;;2.53;;
51828;SDS011;37881;48.024;8.774;2023-07-31T12:58:23;4.10;;;2.50;;
51828;SDS011;37881;48.024;8.774;2023-07-31T13:00:51;5.32;;;2.60;;
51828;SDS011;37881;48.024;8.774;2023-07-31T13:03:17;5.85;;;2.70;;
51828;SDS011;37881;48.024;8.774;2023-07-31T13:05:44;5.00;;;2.70;;
51828;SDS011;37881;48.024;8.774;2023-07-31T13:08:11;4.80;;;2.65;;
51828;SDS011;37881;48.024;8.774;2023-07-31T13:10:38;5.47;;;2.70;;
51828;SDS011;37881;48.024;8.774;2023-07-31T13:13:05;4.60;;;2.60;;
51828;SDS011;37881;48.024;8.774;2023-07-31T13:15:32;4.45;;;2.60;;
51828;SDS011;37881;48.024;8.774;2023-07-31T13:17:59;4.83;;;2.60;;
51828;SDS011;37881;48.024;8.774;2023-07-31T13:20:26;6.93;;;2.70;;
51828;SDS011;37881;48.024;8.774;2023-07-31T13:22:53;5.88;;;2.60;;
51828;SDS011;37881;48.024;8.774;2023-07-31T13:25:19;6.15;;;2.70;;
51828;SDS011;37881;48.024;8.774;2023-07-31T13:27:46;5.63;;;3.00;;
51828;SDS011;37881;48.024;8.774;2023-07-31T13:30:13;6.30;;;3.00;;
51828;SDS011;37881;48.024;8.774;2023-07-31T13:32:40;5.05;;;2.80;;
51828;SDS011;37881;48.024;8.774;2023-07-31T13:35:07;5.10;;;2.50;;
51828;SDS011;37881;48.024;8.774;2023-07-31T13:37:34;6.50;;;3.17;;
51828;SDS011;37881;48.024;8.774;2023-07-31T13:40:01;5.70;;;3.03;;
51828;SDS011;37881;48.024;8.774;2023-07-31T13:42:31;5.90;;;2.97;;
51828;SDS011;37881;48.024;8.774;2023-07-31T13:44:58;4.55;;;2.70;;
51828;SDS011;37881;48.024;8.774;2023-07-31T13:47:24;6.78;;;2.53;;
51828;SDS011;37881;48.024;8.774;2023-07-31T13:49:51;6.28;;;2.90;;
51828;SDS011;37881;48.024;8.774;2023-07-31T13:52:18;5.07;;;2.60;;
51828;SDS011;37881;48.024;8.774;2023-07-31T13:54:45;5.43;;;2.90;;
51828;SDS011;37881;48.024;8.774;2023-07-31T13:57:11;5.20;;;2.65;;
51828;SDS011;37881;48.024;8.774;2023-07-31T13:59:38;5.60;;;3.20;;
51828;SDS011;37881;48.024;8.774;2023-07-31T14:02:05;6.63;;;3.25;;
51828;SDS011;37881;48.024;8.774;2023-07-31T14:04:32;4.82;;;3.25;;
51828;SDS011;37881;48.024;8.774;2023-07-31T14:06:59;4.97;;;3.27;;
51828;SDS011;37881;48.024;8.774;2023-07-31T14:09:26;5.78;;;3.08;;
51828;SDS011;37881;48.024;8.774;2023-07-31T14:11:54;5.78;;;3.15;;
51828;SDS011;37881;48.024;8.774;2023-07-31T14:14:20;10.07;;;3.70;;
51828;SDS011;37881;48.024;8.774;2023-07-31T14:16:47;7.28;;;3.38;;
51828;SDS011;37881;48.024;8.774;2023-07-31T14:19:14;5.33;;;3.30;;
51828;SDS011;37881;48.024;8.774;2023-07-31T14:21:41;5.93;;;3.38;;
51828;SDS011;37881;48.024;8.774;2023-07-31T14:24:12;6.28;;;3.53;;
51828;SDS011;37881;48.024;8.774;2023-07-31T14:26:39;7.60;;;3.70;;
51828;SDS011;37881;48.024;8.774;2023-07-31T14:29:06;5.65;;;3.50;;
51828;SDS011;37881;48.024;8.774;2023-07-31T14:31:32;5.70;;;3.43;;
51828;SDS011;37881;48.024;8.774;2023-07-31T14:33:59;6.18;;;3.53;;
51828;SDS011;37881;48.024;8.774;2023-07-31T14:36:26;7.65;;;3.45;;
51828;SDS011;37881;48.024;8.774;2023-07-31T14:38:53;5.00;;;3.22;;
51828;SDS011;37881;48.024;8.774;2023-07-31T14:41:19;6.32;;;3.45;;
51828;SDS011;37881;48.024;8.774;2023-07-31T14:43:46;6.10;;;3.57;;
51828;SDS011;37881;48.024;8.774;2023-07-31T14:46:13;6.00;;;3.38;;
51828;SDS011;37881;48.024;8.774;2023-07-31T14:48:41;5.55;;;3.40;;
51828;SDS011;37881;48.024;8.774;2023-07-31T14:51:07;5.70;;;3.50;;
51828;SDS011;37881;48.024;8.774;2023-07-31T14:53:34;6.18;;;3.58;;
51828;SDS011;37881;48.024;8.774;2023-07-31T14:56:01;6.37;;;3.63;;
51828;SDS011;37881;48.024;8.774;2023-07-31T14:58:28;5.68;;;3.40;;
51828;SDS011;37881;48.024;8.774;2023-07-31T15:00:55;5.05;;;3.42;;
51828;SDS011;37881;48.024;8.774;2023-07-31T15:03:22;5.90;;;3.25;;
51828;SDS011;37881;48.024;8.774;2023-07-31T15:05:51;4.80;;;3.33;;